createdAt,value
2022-10-13T00:00:33.130Z,7.60
2022-10-13T00:01:55.191Z,7.60
2022-10-13T00:03:18.512Z,7.60
2022-10-13T00:04:40.659Z,7.60
2022-10-13T00:06:07.203Z,7.60
2022-10-13T00:07:29.294Z,7.60
2022-10-13T00:08:52.034Z,7.60
2022-10-13T00:10:14.081Z,7.50
2022-10-13T00:11:36.179Z,7.50
2022-10-13T00:12:58.293Z,7.50
2022-10-13T00:14:20.323Z,7.60
2022-10-13T00:15:45.394Z,7.60
2022-10-13T00:17:07.541Z,7.60
2022-10-13T00:18:29.871Z,7.60
2022-10-13T00:19:51.909Z,7.50
2022-10-13T00:21:16.696Z,7.50
2022-10-13T00:22:38.954Z,7.50
2022-10-13T00:24:01.073Z,7.50
2022-10-13T00:25:23.150Z,7.50
2022-10-13T00:26:45.189Z,7.50
2022-10-13T00:28:07.229Z,7.50
2022-10-13T00:29:29.274Z,7.50
2022-10-13T00:30:51.400Z,7.40
2022-10-13T00:32:13.531Z,7.40
2022-10-13T00:33:35.594Z,7.40
2022-10-13T00:34:57.816Z,7.40
2022-10-13T00:36:21.193Z,7.40
2022-10-13T00:37:43.306Z,7.40
2022-10-13T00:39:05.379Z,7.40
2022-10-13T00:40:27.403Z,7.40
2022-10-13T00:41:49.515Z,7.30
2022-10-13T00:43:47.268Z,7.30
2022-10-13T00:45:27.459Z,7.30
2022-10-13T00:46:49.490Z,7.30
2022-10-13T00:48:12.097Z,7.30
2022-10-13T00:49:34.136Z,7.30
2022-10-13T00:50:58.313Z,7.30
2022-10-13T00:52:21.798Z,7.30
2022-10-13T00:53:44.740Z,7.30
2022-10-13T00:55:08.392Z,7.30
2022-10-13T00:56:31.533Z,7.30
2022-10-13T00:57:55.837Z,7.30
2022-10-13T00:59:23.434Z,7.30
2022-10-13T01:00:48.300Z,8.40
2022-10-13T01:02:10.500Z,7.20
2022-10-13T01:03:33.078Z,7.30
2022-10-13T01:04:57.903Z,7.20
2022-10-13T01:06:23.726Z,7.20
2022-10-13T01:07:49.258Z,7.20
2022-10-13T01:09:11.322Z,7.20
2022-10-13T01:10:56.821Z,7.20
2022-10-13T01:12:37.601Z,7.10
2022-10-13T01:14:14.274Z,7.10
2022-10-13T01:15:39.671Z,7.20
2022-10-13T01:17:22.643Z,7.10
2022-10-13T01:19:05.092Z,7.20
2022-10-13T01:20:32.867Z,7.10
2022-10-13T01:22:08.974Z,7.10
2022-10-13T01:23:48.203Z,7.20
2022-10-13T01:25:47.940Z,7.10
2022-10-13T01:27:19.038Z,7.10
2022-10-13T01:28:56.089Z,7.10
2022-10-13T01:30:22.711Z,7.10
2022-10-13T01:32:05.893Z,7.10
2022-10-13T01:33:45.041Z,7.00
2022-10-13T01:35:16.139Z,7.00
2022-10-13T01:37:01.195Z,7.00
2022-10-13T01:38:39.160Z,7.00
2022-10-13T01:40:11.927Z,7.00
2022-10-13T01:41:37.477Z,7.00
2022-10-13T01:43:31.061Z,7.00
2022-10-13T01:44:58.877Z,7.00
2022-10-13T01:46:26.679Z,7.00
2022-10-13T01:47:50.235Z,7.00
2022-10-13T01:49:15.142Z,7.00
2022-10-13T01:50:38.099Z,7.00
2022-10-13T01:52:06.300Z,6.90
2022-10-13T01:53:29.908Z,6.90
2022-10-13T01:54:53.168Z,6.90
2022-10-13T01:56:15.568Z,6.90
2022-10-13T01:57:41.595Z,6.90
2022-10-13T01:59:09.211Z,6.90
2022-10-13T02:00:39.135Z,6.90
2022-10-13T02:02:18.008Z,6.90
2022-10-13T02:03:42.882Z,6.90
2022-10-13T02:05:23.717Z,6.90
2022-10-13T02:07:30.899Z,6.90
2022-10-13T02:09:22.135Z,6.90
2022-10-13T02:11:12.008Z,6.90
2022-10-13T02:12:43.799Z,6.90
2022-10-13T02:14:18.223Z,6.90
2022-10-13T02:15:49.406Z,6.90
2022-10-13T02:17:11.691Z,6.90
2022-10-13T02:18:35.767Z,6.90
2022-10-13T02:19:58.248Z,6.90
2022-10-13T02:21:20.324Z,6.90
2022-10-13T02:22:45.825Z,6.90
2022-10-13T02:24:08.897Z,6.80
2022-10-13T02:25:31.872Z,6.90
2022-10-13T02:26:54.423Z,6.90
2022-10-13T02:28:17.666Z,6.90
2022-10-13T02:29:50.623Z,6.90
2022-10-13T02:31:12.766Z,6.80
2022-10-13T02:32:34.872Z,6.80
2022-10-13T02:33:56.923Z,6.80
2022-10-13T02:35:19.041Z,6.80
2022-10-13T02:36:41.667Z,6.80
2022-10-13T02:38:04.025Z,6.80
2022-10-13T02:39:26.056Z,6.80
2022-10-13T02:40:48.096Z,6.80
2022-10-13T02:42:10.355Z,6.80
2022-10-13T02:43:33.929Z,6.80
2022-10-13T02:44:56.014Z,6.80
2022-10-13T02:46:18.123Z,6.80
2022-10-13T02:47:40.733Z,6.80
2022-10-13T02:49:02.786Z,6.70
2022-10-13T02:50:24.842Z,6.80
2022-10-13T02:51:46.933Z,6.70
2022-10-13T02:53:08.970Z,6.70
2022-10-13T02:54:30.976Z,6.70
2022-10-13T02:55:53.018Z,6.70
2022-10-13T02:57:15.054Z,6.70
2022-10-13T02:58:37.346Z,6.70
2022-10-13T02:59:59.760Z,6.70
2022-10-13T03:01:21.852Z,6.70
2022-10-13T03:02:44.014Z,6.70
2022-10-13T03:04:06.057Z,6.70
2022-10-13T03:05:28.117Z,6.70
2022-10-13T03:06:50.226Z,6.70
2022-10-13T03:08:12.267Z,6.70
2022-10-13T03:09:34.313Z,6.70
2022-10-13T03:10:56.909Z,6.70
2022-10-13T03:12:19.327Z,6.70
2022-10-13T03:13:41.541Z,6.70
2022-10-13T03:15:03.972Z,6.70
2022-10-13T03:16:26.098Z,6.70
2022-10-13T03:17:48.311Z,6.60
2022-10-13T03:19:10.980Z,6.60
2022-10-13T03:20:33.056Z,6.60
2022-10-13T03:21:55.177Z,6.60
2022-10-13T03:23:17.213Z,6.60
2022-10-13T03:24:39.209Z,6.60
2022-10-13T03:26:01.641Z,6.60
2022-10-13T03:27:24.089Z,6.60
2022-10-13T03:28:50.775Z,6.60
2022-10-13T03:30:13.001Z,6.60
2022-10-13T03:31:35.436Z,6.60
2022-10-13T03:32:57.486Z,6.70
2022-10-13T03:34:20.339Z,6.70
2022-10-13T03:35:42.423Z,6.70
2022-10-13T03:37:04.699Z,6.70
2022-10-13T03:38:26.770Z,6.70
2022-10-13T03:39:48.799Z,6.80
2022-10-13T03:41:16.840Z,6.70
2022-10-13T03:42:39.509Z,6.80
2022-10-13T03:44:01.763Z,6.80
2022-10-13T03:45:23.986Z,6.70
2022-10-13T03:46:46.132Z,6.70
2022-10-13T03:48:08.161Z,6.70
2022-10-13T03:49:30.284Z,6.70
2022-10-13T03:50:52.342Z,6.80
2022-10-13T03:52:14.417Z,6.80
2022-10-13T03:53:36.841Z,6.80
2022-10-13T03:54:58.886Z,6.80
2022-10-13T03:56:23.983Z,6.80
2022-10-13T03:57:46.013Z,6.80
2022-10-13T03:59:08.411Z,6.80
2022-10-13T04:00:30.385Z,6.80
2022-10-13T04:01:52.437Z,6.80
2022-10-13T04:03:14.521Z,6.80
2022-10-13T04:04:37.829Z,6.80
2022-10-13T04:06:04.606Z,6.80
2022-10-13T04:07:26.667Z,6.80
2022-10-13T04:08:49.573Z,6.80
2022-10-13T04:10:11.748Z,6.90
2022-10-13T04:11:34.087Z,6.90
2022-10-13T04:12:56.142Z,6.90
2022-10-13T04:14:19.112Z,6.90
2022-10-13T04:15:41.229Z,6.90
2022-10-13T04:17:03.294Z,6.80
2022-10-13T04:18:25.444Z,6.90
2022-10-13T04:19:47.515Z,6.90
2022-10-13T04:21:11.873Z,6.90
2022-10-13T04:22:33.917Z,6.90
2022-10-13T04:23:57.805Z,6.90
2022-10-13T04:25:19.939Z,6.90
2022-10-13T04:26:42.191Z,6.90
2022-10-13T04:28:05.726Z,6.90
2022-10-13T04:29:27.801Z,6.90
2022-10-13T04:30:50.212Z,6.90
2022-10-13T04:32:12.266Z,6.90
2022-10-13T04:33:34.308Z,6.90
2022-10-13T04:34:56.359Z,6.90
2022-10-13T04:36:19.258Z,6.90
2022-10-13T04:37:44.950Z,6.90
2022-10-13T04:39:07.338Z,6.90
2022-10-13T04:40:29.415Z,7.00
2022-10-13T04:41:51.440Z,7.00
2022-10-13T04:43:13.640Z,7.00
2022-10-13T04:44:35.754Z,7.00
2022-10-13T04:46:06.919Z,7.00
2022-10-13T04:47:31.413Z,7.00
2022-10-13T04:48:55.704Z,7.00
2022-10-13T04:50:18.490Z,7.00
2022-10-13T04:51:40.784Z,7.00
2022-10-13T04:53:02.825Z,6.90
2022-10-13T04:54:24.900Z,7.00
2022-10-13T04:55:46.981Z,7.10
2022-10-13T04:57:08.989Z,7.10
2022-10-13T04:58:32.447Z,7.10
2022-10-13T04:59:54.472Z,7.10
2022-10-13T05:01:22.159Z,7.10
2022-10-13T05:02:44.592Z,7.10
2022-10-13T05:04:07.410Z,7.20
2022-10-13T05:05:29.512Z,7.20
2022-10-13T05:07:16.364Z,7.20
2022-10-13T05:08:33.970Z,7.30
2022-10-13T05:09:56.262Z,7.30
2022-10-13T05:11:20.553Z,7.30
2022-10-13T05:12:42.645Z,7.40
2022-10-13T05:14:04.748Z,7.40
2022-10-13T05:15:26.812Z,7.40
2022-10-13T05:16:49.219Z,7.40
2022-10-13T05:18:11.351Z,7.40
2022-10-13T05:19:33.392Z,7.40
2022-10-13T05:20:55.385Z,7.40
2022-10-13T05:22:17.844Z,7.50
2022-10-13T05:23:41.693Z,7.50
2022-10-13T05:25:04.434Z,7.50
2022-10-13T05:26:29.378Z,7.50
2022-10-13T05:27:51.454Z,7.60
2022-10-13T05:29:13.613Z,7.60
2022-10-13T05:30:36.010Z,7.60
2022-10-13T05:31:58.021Z,7.60
2022-10-13T05:33:20.080Z,7.60
2022-10-13T05:34:42.180Z,7.60
2022-10-13T05:36:12.599Z,7.60
2022-10-13T05:37:34.716Z,7.70
2022-10-13T05:39:08.367Z,7.70
2022-10-13T05:40:30.446Z,7.70
2022-10-13T05:41:52.509Z,7.70
2022-10-13T05:43:14.584Z,7.70
2022-10-13T05:44:37.498Z,7.70
2022-10-13T05:46:02.731Z,7.80
2022-10-13T05:47:28.127Z,7.80
2022-10-13T05:48:50.651Z,7.80
2022-10-13T05:50:12.771Z,7.80
2022-10-13T05:51:41.828Z,7.90
2022-10-13T05:53:03.903Z,7.90
2022-10-13T05:54:30.924Z,7.90
2022-10-13T05:55:56.248Z,8.00
2022-10-13T05:57:41.153Z,8.00
2022-10-13T05:59:06.131Z,8.00
2022-10-13T06:00:29.176Z,8.10
2022-10-13T06:01:51.863Z,8.10
2022-10-13T06:03:17.451Z,8.10
2022-10-13T06:04:44.301Z,8.20
2022-10-13T06:06:06.642Z,8.20
2022-10-13T06:07:30.629Z,8.20
2022-10-13T06:08:53.139Z,8.20
2022-10-13T06:10:15.753Z,8.20
2022-10-13T06:11:37.787Z,8.30
2022-10-13T06:12:59.819Z,8.40
2022-10-13T06:14:21.847Z,8.40
2022-10-13T06:15:43.854Z,8.40
2022-10-13T06:17:06.146Z,8.40
2022-10-13T06:18:28.606Z,8.40
2022-10-13T06:19:50.605Z,8.40
2022-10-13T06:21:13.460Z,8.40
2022-10-13T06:22:36.740Z,8.50
2022-10-13T06:23:58.754Z,8.50
2022-10-13T06:25:20.882Z,8.50
2022-10-13T06:26:43.213Z,8.50
2022-10-13T06:28:05.256Z,8.50
2022-10-13T06:29:27.294Z,8.50
2022-10-13T06:30:54.390Z,8.50
2022-10-13T06:32:16.383Z,8.50
2022-10-13T06:33:38.416Z,8.50
2022-10-13T06:35:00.565Z,8.50
2022-10-13T06:36:22.789Z,8.50
2022-10-13T06:37:46.462Z,8.50
2022-10-13T06:39:09.021Z,8.40
2022-10-13T06:40:31.195Z,8.40
2022-10-13T06:41:55.021Z,8.40
2022-10-13T06:43:17.037Z,8.40
2022-10-13T06:44:39.172Z,8.30
2022-10-13T06:46:01.444Z,8.30
2022-10-13T06:47:23.484Z,8.30
2022-10-13T06:48:45.518Z,8.30
2022-10-13T06:50:07.861Z,8.30
2022-10-13T06:51:29.904Z,8.30
2022-10-13T06:52:52.077Z,8.30
2022-10-13T06:54:14.176Z,8.30
2022-10-13T06:55:36.298Z,8.20
2022-10-13T06:56:58.363Z,8.20
2022-10-13T06:58:20.386Z,8.20
2022-10-13T06:59:44.238Z,8.20
2022-10-13T07:01:06.998Z,8.20
2022-10-13T07:02:29.084Z,8.20
2022-10-13T07:03:51.893Z,8.20
2022-10-13T07:05:13.939Z,8.20
2022-10-13T07:06:36.190Z,8.20
2022-10-13T07:07:58.231Z,8.30
2022-10-13T07:09:20.569Z,8.30
2022-10-13T07:10:43.044Z,8.30
2022-10-13T07:12:05.327Z,8.40
2022-10-13T07:13:27.781Z,8.30
2022-10-13T07:14:49.930Z,8.40
2022-10-13T07:16:11.976Z,8.50
2022-10-13T07:17:34.047Z,8.50
2022-10-13T07:18:56.038Z,8.60
2022-10-13T07:20:18.048Z,9.20
2022-10-13T07:21:40.050Z,8.90
2022-10-13T07:23:02.394Z,9.00
2022-10-13T07:24:24.992Z,9.10
2022-10-13T07:25:47.019Z,9.20
2022-10-13T07:27:09.113Z,9.20
2022-10-13T07:28:31.266Z,9.30
2022-10-13T07:29:53.329Z,9.30
2022-10-13T07:31:18.152Z,9.40
2022-10-13T07:32:42.042Z,9.50
2022-10-13T07:34:05.191Z,9.50
2022-10-13T07:35:30.725Z,9.50
2022-10-13T07:36:52.985Z,9.50
2022-10-13T07:38:15.021Z,9.40
2022-10-13T07:39:37.033Z,9.40
2022-10-13T07:41:03.852Z,9.40
2022-10-13T07:42:26.251Z,9.40
2022-10-13T07:43:48.257Z,9.50
2022-10-13T07:45:10.736Z,9.50
2022-10-13T07:46:34.111Z,9.60
2022-10-13T07:47:56.767Z,9.70
2022-10-13T07:49:19.110Z,9.80
2022-10-13T07:50:41.155Z,9.90
2022-10-13T07:52:03.500Z,10.00
2022-10-13T07:53:25.527Z,10.10
2022-10-13T07:54:47.670Z,10.20
2022-10-13T07:56:11.983Z,10.40
2022-10-13T07:57:34.305Z,10.50
2022-10-13T07:58:57.613Z,10.50
2022-10-13T08:00:19.935Z,10.70
2022-10-13T08:01:42.108Z,10.70
2022-10-13T08:03:04.325Z,10.80
2022-10-13T08:04:33.791Z,10.90
2022-10-13T08:05:58.239Z,11.00
2022-10-13T08:07:20.693Z,11.00
2022-10-13T08:08:43.178Z,11.10
2022-10-13T08:10:05.764Z,11.10
2022-10-13T08:11:28.139Z,11.10
2022-10-13T08:12:50.179Z,11.10
2022-10-13T08:14:13.426Z,11.10
2022-10-13T08:15:35.452Z,11.10
2022-10-13T08:16:58.024Z,11.10
2022-10-13T08:18:20.101Z,11.20
2022-10-13T08:19:42.149Z,11.30
2022-10-13T08:21:32.944Z,11.30
2022-10-13T08:22:46.289Z,11.40
2022-10-13T08:24:12.530Z,11.50
2022-10-13T08:25:41.889Z,11.50
2022-10-13T08:27:04.160Z,11.60
2022-10-13T08:28:28.659Z,11.70
2022-10-13T08:29:51.353Z,11.70
2022-10-13T08:31:13.610Z,11.80
2022-10-13T08:32:35.857Z,11.90
2022-10-13T08:33:57.942Z,12.00
2022-10-13T08:35:20.027Z,12.10
2022-10-13T08:36:42.700Z,12.10
2022-10-13T08:38:04.789Z,12.20
2022-10-13T08:39:26.898Z,12.20
2022-10-13T08:40:50.866Z,12.30
2022-10-13T08:42:19.657Z,12.50
2022-10-13T08:44:13.391Z,12.60
2022-10-13T08:45:45.917Z,12.80
2022-10-13T08:47:22.283Z,13.10
2022-10-13T08:48:44.305Z,13.30
2022-10-13T08:50:15.965Z,13.40
2022-10-13T08:51:39.596Z,13.60
2022-10-13T08:53:22.914Z,13.60
2022-10-13T08:54:44.984Z,13.70
2022-10-13T08:56:24.632Z,13.60
2022-10-13T08:57:46.736Z,13.60
2022-10-13T08:59:16.888Z,13.60
2022-10-13T09:00:39.395Z,13.50
2022-10-13T09:02:03.419Z,13.60
2022-10-13T09:03:28.935Z,13.70
2022-10-13T09:04:53.261Z,13.70
2022-10-13T09:06:31.798Z,13.80
2022-10-13T09:07:56.645Z,13.80
2022-10-13T09:09:18.950Z,13.70
2022-10-13T09:10:51.042Z,13.70
2022-10-13T09:12:13.673Z,13.80
2022-10-13T09:13:35.723Z,13.80
2022-10-13T09:15:09.629Z,13.90
2022-10-13T09:16:39.321Z,14.00
2022-10-13T09:18:13.864Z,14.10
2022-10-13T09:19:40.683Z,14.30
2022-10-13T09:21:18.229Z,14.30
2022-10-13T09:22:40.505Z,14.50
2022-10-13T09:24:08.258Z,14.40
2022-10-13T09:25:41.578Z,14.40
2022-10-13T09:27:11.566Z,14.40
2022-10-13T09:28:34.108Z,14.20
2022-10-13T09:29:56.178Z,14.20
2022-10-13T09:31:24.514Z,14.30
2022-10-13T09:32:46.760Z,14.30
2022-10-13T09:34:14.002Z,14.40
2022-10-13T09:35:37.598Z,14.40
2022-10-13T09:37:05.960Z,14.50
2022-10-13T09:38:29.203Z,14.50
2022-10-13T09:40:11.846Z,14.60
2022-10-13T09:41:35.213Z,14.60
2022-10-13T09:42:58.517Z,14.60
2022-10-13T09:44:29.767Z,14.70
2022-10-13T09:45:51.941Z,14.70
2022-10-13T09:47:21.754Z,14.80
2022-10-13T09:48:53.242Z,14.80
2022-10-13T09:50:25.047Z,14.80
2022-10-13T09:51:48.170Z,14.80
2022-10-13T09:53:32.183Z,14.90
2022-10-13T09:55:00.933Z,14.90
2022-10-13T09:56:32.070Z,15.00
2022-10-13T09:57:56.049Z,15.10
2022-10-13T09:59:28.498Z,15.20
2022-10-13T10:00:52.346Z,15.10
2022-10-13T10:02:18.022Z,15.00
2022-10-13T10:03:42.364Z,14.90
2022-10-13T10:05:21.772Z,14.80
2022-10-13T10:06:45.411Z,14.70
2022-10-13T10:08:18.321Z,14.60
2022-10-13T10:09:51.253Z,14.60
2022-10-13T10:11:35.073Z,14.60
2022-10-13T10:12:57.175Z,14.60
2022-10-13T10:14:26.948Z,14.60
2022-10-13T10:16:11.651Z,14.60
2022-10-13T10:17:45.402Z,14.70
2022-10-13T10:19:45.434Z,14.90
2022-10-13T10:21:31.723Z,15.00
2022-10-13T10:23:32.536Z,15.00
2022-10-13T10:25:02.550Z,15.10
2022-10-13T10:26:47.942Z,15.30
2022-10-13T10:28:24.641Z,15.60
2022-10-13T10:29:57.636Z,15.90
2022-10-13T10:31:28.713Z,16.10
2022-10-13T10:33:04.633Z,16.30
2022-10-13T10:34:38.069Z,16.40
2022-10-13T10:36:07.238Z,16.60
2022-10-13T10:37:35.261Z,16.50
2022-10-13T10:39:23.166Z,16.70
2022-10-13T10:41:18.850Z,16.80
2022-10-13T10:43:02.858Z,16.80
2022-10-13T10:44:39.630Z,16.90
2022-10-13T10:46:01.770Z,16.80
2022-10-13T10:47:27.972Z,16.70
2022-10-13T10:48:57.127Z,16.60
2022-10-13T10:50:20.389Z,16.60
2022-10-13T10:51:43.518Z,16.60
2022-10-13T10:53:18.254Z,16.70
2022-10-13T10:54:42.906Z,16.80
2022-10-13T10:56:15.602Z,16.90
2022-10-13T10:57:59.145Z,16.90
2022-10-13T10:59:51.136Z,17.00
2022-10-13T11:01:31.985Z,16.90
2022-10-13T11:03:21.582Z,16.90
2022-10-13T11:04:46.836Z,16.90
2022-10-13T11:06:17.722Z,16.90
2022-10-13T11:07:39.659Z,17.00
2022-10-13T11:09:03.155Z,17.00
2022-10-13T11:10:26.838Z,17.10
2022-10-13T11:11:48.851Z,17.20
2022-10-13T11:13:17.079Z,17.40
2022-10-13T11:14:39.408Z,17.50
2022-10-13T11:16:24.203Z,17.60
2022-10-13T11:17:46.270Z,17.60
2022-10-13T11:19:08.461Z,17.50
2022-10-13T11:20:36.565Z,17.50
2022-10-13T11:21:58.512Z,17.50
2022-10-13T11:23:20.477Z,17.60
2022-10-13T11:24:42.420Z,17.60
2022-10-13T11:26:26.414Z,17.60
2022-10-13T11:27:48.481Z,17.60
2022-10-13T11:29:53.801Z,17.50
2022-10-13T11:31:15.882Z,17.30
2022-10-13T11:32:42.870Z,17.10
2022-10-13T11:34:28.653Z,16.90
2022-10-13T11:35:50.766Z,16.80
2022-10-13T11:37:17.313Z,16.70
2022-10-13T11:38:53.334Z,16.50
2022-10-13T11:40:34.096Z,16.40
2022-10-13T11:42:02.173Z,16.40
2022-10-13T11:43:42.130Z,16.40
2022-10-13T11:45:26.862Z,16.40
2022-10-13T11:47:10.177Z,16.40
2022-10-13T11:48:54.048Z,16.40
2022-10-13T11:50:23.828Z,16.40
2022-10-13T11:52:00.738Z,16.40
2022-10-13T11:53:41.302Z,16.50
2022-10-13T11:55:12.469Z,16.60
2022-10-13T11:56:50.031Z,16.60
2022-10-13T11:58:18.744Z,16.70
2022-10-13T11:59:47.678Z,16.80
2022-10-13T12:01:14.885Z,16.80
2022-10-13T12:02:37.112Z,16.80
2022-10-13T12:03:59.108Z,16.80
2022-10-13T12:05:27.015Z,16.80
2022-10-13T12:07:02.537Z,16.90
2022-10-13T12:08:26.673Z,16.90
2022-10-13T12:09:57.035Z,16.80
2022-10-13T12:11:21.754Z,16.80
2022-10-13T12:12:49.389Z,16.80
2022-10-13T12:14:48.563Z,16.80
2022-10-13T12:16:13.489Z,16.80
2022-10-13T12:17:35.942Z,16.80
2022-10-13T12:19:20.385Z,16.80
2022-10-13T12:20:42.483Z,16.70
2022-10-13T12:22:12.535Z,16.70
2022-10-13T12:23:34.974Z,16.80
2022-10-13T12:25:02.736Z,16.80
2022-10-13T12:26:25.751Z,16.80
2022-10-13T12:27:50.471Z,16.80
2022-10-13T12:29:15.053Z,16.80
2022-10-13T12:30:37.168Z,16.80
2022-10-13T12:31:59.561Z,16.80
2022-10-13T12:33:30.010Z,16.80
2022-10-13T12:34:52.207Z,16.70
2022-10-13T12:36:19.218Z,16.70
2022-10-13T12:37:41.391Z,16.70
2022-10-13T12:39:07.731Z,16.70
2022-10-13T12:40:30.252Z,16.70
2022-10-13T12:41:53.203Z,16.70
2022-10-13T12:43:25.353Z,16.70
2022-10-13T12:44:47.577Z,16.70
2022-10-13T12:46:09.721Z,16.70
2022-10-13T12:47:38.253Z,16.70
2022-10-13T12:49:27.647Z,16.70
2022-10-13T12:50:49.711Z,16.70
2022-10-13T12:52:14.517Z,16.60
2022-10-13T12:53:38.077Z,16.60
2022-10-13T12:55:00.289Z,16.60
2022-10-13T12:56:31.074Z,16.60
2022-10-13T12:57:53.271Z,16.60
2022-10-13T12:59:20.795Z,16.60
2022-10-13T13:00:42.964Z,16.60
2022-10-13T13:02:31.064Z,16.60
2022-10-13T13:03:59.273Z,16.60
2022-10-13T13:05:33.336Z,16.60
2022-10-13T13:07:04.121Z,16.60
2022-10-13T13:08:32.802Z,16.60
2022-10-13T13:10:19.517Z,16.60
2022-10-13T13:11:41.666Z,16.60
2022-10-13T13:13:14.923Z,16.70
2022-10-13T13:14:42.215Z,16.70
2022-10-13T13:16:18.205Z,16.70
2022-10-13T13:19:22.884Z,16.70
2022-10-13T13:20:44.927Z,16.60
2022-10-13T13:22:07.472Z,16.60
2022-10-13T13:23:34.204Z,16.60
2022-10-13T13:24:56.282Z,16.60
2022-10-13T13:26:20.815Z,16.50
2022-10-13T13:27:42.862Z,16.50
2022-10-13T13:29:10.705Z,16.50
2022-10-13T13:30:32.700Z,16.40
2022-10-13T13:31:54.717Z,16.40
2022-10-13T13:33:16.741Z,16.40
2022-10-13T13:34:38.796Z,16.40
2022-10-13T13:36:00.871Z,16.30
2022-10-13T13:37:24.868Z,16.20
2022-10-13T13:38:48.010Z,16.20
2022-10-13T13:40:19.750Z,16.20
2022-10-13T13:41:42.076Z,16.20
2022-10-13T13:43:04.181Z,16.20
2022-10-13T13:44:26.183Z,16.20
2022-10-13T13:45:48.245Z,16.20
2022-10-13T13:47:36.665Z,16.10
2022-10-13T13:48:58.776Z,16.10
2022-10-13T13:50:24.661Z,16.10
2022-10-13T13:51:46.846Z,16.10
2022-10-13T13:53:09.787Z,16.10
2022-10-13T13:54:31.884Z,16.10
2022-10-13T13:55:54.170Z,16.00
2022-10-13T13:57:16.356Z,16.00
2022-10-13T13:58:38.420Z,16.00
2022-10-13T14:00:00.504Z,15.90
2022-10-13T14:01:23.737Z,15.90
2022-10-13T14:02:46.316Z,15.90
2022-10-13T14:04:08.370Z,15.80
2022-10-13T14:05:30.428Z,15.80
2022-10-13T14:06:52.961Z,15.80
2022-10-13T14:08:14.963Z,15.80
2022-10-13T14:09:37.123Z,15.80
2022-10-13T14:10:59.233Z,15.80
2022-10-13T14:12:21.693Z,15.80
2022-10-13T14:13:44.319Z,15.80
2022-10-13T14:15:06.995Z,15.90
2022-10-13T14:16:29.115Z,15.90
2022-10-13T14:17:54.680Z,15.90
2022-10-13T14:19:16.810Z,15.90
2022-10-13T14:20:42.058Z,15.90
2022-10-13T14:22:08.589Z,15.90
2022-10-13T14:23:31.519Z,15.90
2022-10-13T14:24:53.743Z,15.90
2022-10-13T14:26:15.956Z,16.00
2022-10-13T14:27:38.178Z,16.00
2022-10-13T14:29:00.487Z,16.00
2022-10-13T14:30:22.637Z,15.90
2022-10-13T14:31:44.700Z,15.90
2022-10-13T14:33:07.223Z,15.90
2022-10-13T14:34:29.366Z,15.90
2022-10-13T14:35:59.942Z,15.90
2022-10-13T14:37:23.498Z,15.90
2022-10-13T14:38:46.491Z,15.90
2022-10-13T14:40:09.038Z,15.90
2022-10-13T14:41:31.094Z,15.90
2022-10-13T14:42:53.145Z,15.90
2022-10-13T14:44:15.207Z,15.80
2022-10-13T14:45:37.200Z,15.80
2022-10-13T14:46:59.237Z,15.80
2022-10-13T14:48:24.753Z,15.80
2022-10-13T14:49:47.254Z,15.70
2022-10-13T14:51:10.658Z,15.60
2022-10-13T14:52:32.828Z,15.60
2022-10-13T14:53:55.444Z,15.50
2022-10-13T14:55:17.592Z,15.50
2022-10-13T14:56:39.799Z,15.40
2022-10-13T14:58:02.765Z,15.30
2022-10-13T14:59:24.898Z,15.30
2022-10-13T15:00:47.148Z,15.20
2022-10-13T15:02:13.940Z,15.40
2022-10-13T15:03:36.263Z,15.10
2022-10-13T15:04:58.592Z,15.00
2022-10-13T15:06:23.336Z,15.00
2022-10-13T15:07:45.556Z,14.90
2022-10-13T15:10:36.792Z,14.90
2022-10-13T15:12:01.836Z,14.80
2022-10-13T15:13:24.026Z,14.90
2022-10-13T15:14:46.215Z,14.70
2022-10-13T15:16:15.097Z,14.80
2022-10-13T15:17:37.355Z,14.70
2022-10-13T15:19:00.509Z,14.70
2022-10-13T15:20:25.363Z,14.70
2022-10-13T15:21:47.730Z,14.70
2022-10-13T15:23:09.953Z,14.70
2022-10-13T15:24:32.048Z,14.70
2022-10-13T15:25:59.299Z,14.70
2022-10-13T15:27:21.662Z,14.70
2022-10-13T15:28:46.174Z,14.60
2022-10-13T15:30:09.371Z,14.70
2022-10-13T15:31:31.597Z,14.70
2022-10-13T15:32:53.775Z,14.70
2022-10-13T15:34:15.766Z,14.60
2022-10-13T15:35:37.838Z,14.60
2022-10-13T15:37:00.081Z,14.60
2022-10-13T15:38:22.891Z,14.60
2022-10-13T15:39:45.100Z,14.50
2022-10-13T15:41:08.041Z,14.50
2022-10-13T15:42:30.098Z,14.50
2022-10-13T15:43:52.279Z,14.50
2022-10-13T15:45:15.510Z,14.40
2022-10-13T15:46:49.138Z,14.40
2022-10-13T15:48:21.040Z,14.40
2022-10-13T15:49:46.126Z,14.40
2022-10-13T15:51:16.590Z,14.30
2022-10-13T15:52:40.040Z,14.30
2022-10-13T15:54:02.389Z,14.30
2022-10-13T15:55:24.677Z,14.40
2022-10-13T15:56:46.985Z,14.20
2022-10-13T15:58:13.595Z,14.10
2022-10-13T15:59:36.139Z,14.10
2022-10-13T16:00:58.225Z,14.00
2022-10-13T16:02:20.498Z,14.00
2022-10-13T16:03:42.963Z,13.90
2022-10-13T16:05:05.576Z,13.90
2022-10-13T16:06:27.752Z,13.80
2022-10-13T16:07:50.021Z,13.90
2022-10-13T16:09:12.174Z,13.80
2022-10-13T16:10:34.299Z,13.70
2022-10-13T16:11:56.545Z,13.70
2022-10-13T16:13:18.631Z,13.70
2022-10-13T16:14:40.733Z,13.70
2022-10-13T16:16:02.999Z,13.60
2022-10-13T16:17:25.228Z,13.60
2022-10-13T16:18:47.771Z,13.50
2022-10-13T16:20:11.230Z,13.50
2022-10-13T16:21:33.414Z,13.50
2022-10-13T16:22:55.573Z,13.40
2022-10-13T16:24:17.566Z,13.50
2022-10-13T16:25:39.947Z,13.40
2022-10-13T16:27:02.168Z,13.40
2022-10-13T16:28:24.508Z,13.40
2022-10-13T16:29:47.011Z,13.30
2022-10-13T16:31:14.975Z,13.30
2022-10-13T16:32:40.100Z,13.30
2022-10-13T16:34:02.237Z,13.20
2022-10-13T16:35:24.332Z,13.20
2022-10-13T16:36:46.430Z,13.20
2022-10-13T16:38:08.476Z,13.20
2022-10-13T16:39:30.547Z,13.10
2022-10-13T16:40:52.665Z,13.20
2022-10-13T16:42:14.675Z,13.10
2022-10-13T16:43:36.789Z,13.10
2022-10-13T16:44:58.812Z,13.10
2022-10-13T16:46:21.395Z,13.10
2022-10-13T16:47:43.507Z,13.10
2022-10-13T16:49:05.556Z,13.00
2022-10-13T16:50:27.606Z,13.00
2022-10-13T16:51:49.804Z,13.10
2022-10-13T16:53:11.831Z,13.00
2022-10-13T16:54:33.849Z,13.00
2022-10-13T16:55:55.917Z,13.10
2022-10-13T16:57:18.194Z,13.00
2022-10-13T16:58:45.022Z,13.00
2022-10-13T17:00:08.279Z,13.10
2022-10-13T17:01:31.631Z,13.10
2022-10-13T17:02:53.709Z,13.10
2022-10-13T17:04:21.172Z,13.10
2022-10-13T17:05:44.068Z,13.10
2022-10-13T17:07:06.108Z,13.10
2022-10-13T17:08:28.642Z,13.10
2022-10-13T17:09:50.757Z,13.10
2022-10-13T17:11:18.636Z,13.10
2022-10-13T17:12:40.818Z,13.10
2022-10-13T17:14:03.764Z,13.10
2022-10-13T17:15:26.042Z,13.10
2022-10-13T17:16:48.148Z,13.10
2022-10-13T17:18:10.250Z,13.00
2022-10-13T17:19:32.442Z,13.00
2022-10-13T17:20:59.819Z,13.00
2022-10-13T17:22:21.968Z,12.90
2022-10-13T17:23:48.391Z,12.90
2022-10-13T17:25:11.071Z,12.90
2022-10-13T17:26:33.383Z,12.90
2022-10-13T17:27:55.549Z,12.80
2022-10-13T17:29:17.881Z,12.80
2022-10-13T17:30:39.998Z,12.80
2022-10-13T17:32:02.141Z,12.80
2022-10-13T17:33:24.741Z,12.90
2022-10-13T17:34:46.803Z,12.90
2022-10-13T17:36:16.898Z,13.00
2022-10-13T17:37:39.078Z,12.90
2022-10-13T17:39:07.839Z,12.90
2022-10-13T17:40:32.569Z,12.90
2022-10-13T17:41:54.595Z,12.90
2022-10-13T17:43:16.714Z,13.00
2022-10-13T17:44:38.820Z,13.00
2022-10-13T17:47:58.860Z,13.00
2022-10-13T17:49:21.007Z,13.00
2022-10-13T17:50:43.184Z,13.00
2022-10-13T17:52:05.457Z,12.90
2022-10-13T17:53:27.537Z,12.90
2022-10-13T17:54:49.581Z,12.80
2022-10-13T17:56:18.078Z,12.80
2022-10-13T17:57:40.218Z,12.80
2022-10-13T17:59:02.769Z,12.70
2022-10-13T18:00:24.974Z,12.70
2022-10-13T18:01:47.230Z,12.70
2022-10-13T18:03:09.734Z,12.60
2022-10-13T18:04:32.013Z,12.60
2022-10-13T18:05:54.288Z,12.60
2022-10-13T18:07:16.382Z,12.60
2022-10-13T18:08:38.590Z,12.50
2022-10-13T18:10:00.688Z,12.50
2022-10-13T18:11:25.042Z,12.50
2022-10-13T18:12:47.095Z,12.40
2022-10-13T18:14:09.842Z,12.40
2022-10-13T18:15:36.595Z,12.40
2022-10-13T18:16:58.651Z,12.30
2022-10-13T18:18:20.667Z,12.40
2022-10-13T18:19:43.663Z,12.30
2022-10-13T18:21:07.648Z,12.30
2022-10-13T18:22:29.856Z,12.30
2022-10-13T18:23:53.082Z,12.30
2022-10-13T18:25:15.194Z,12.30
2022-10-13T18:26:37.323Z,12.20
2022-10-13T18:27:59.394Z,12.40
2022-10-13T18:29:21.417Z,12.20
2022-10-13T18:30:43.419Z,12.20
2022-10-13T18:32:05.505Z,12.20
2022-10-13T18:33:27.818Z,12.10
2022-10-13T18:34:50.288Z,12.10
2022-10-13T18:36:19.731Z,12.10
2022-10-13T18:37:41.738Z,12.00
2022-10-13T18:39:08.050Z,12.00
2022-10-13T18:40:30.609Z,12.00
2022-10-13T18:41:54.003Z,12.00
2022-10-13T18:43:16.026Z,11.90